sensor_id;sensor_type;location;lat;lon;timestamp;temperature;humidity
64937;SHT30;51452;47.698;19.050;2022-12-07T00:00:17;6.16;69.41
64937;SHT30;51452;47.698;19.050;2022-12-07T00:02:42;6.20;69.37
64937;SHT30;51452;47.698;19.050;2022-12-07T00:05:08;6.17;69.38
64937;SHT30;51452;47.698;19.050;2022-12-07T00:07:33;6.06;69.25
64937;SHT30;51452;47.698;19.050;2022-12-07T00:09:58;6.06;69.33
64937;SHT30;51452;47.698;19.050;2022-12-07T00:12:24;6.03;69.40
64937;SHT30;51452;47.698;19.050;2022-12-07T00:14:49;6.03;69.76
64937;SHT30;51452;47.698;19.050;2022-12-07T00:17:14;5.97;69.47
64937;SHT30;51452;47.698;19.050;2022-12-07T00:19:40;5.96;69.48
64937;SHT30;51452;47.698;19.050;2022-12-07T00:22:05;5.87;69.24
64937;SHT30;51452;47.698;19.050;2022-12-07T00:24:33;5.86;69.33
64937;SHT30;51452;47.698;19.050;2022-12-07T00:26:59;5.85;68.98
64937;SHT30;51452;47.698;19.050;2022-12-07T00:29:24;5.81;69.06
64937;SHT30;51452;47.698;19.050;2022-12-07T00:31:49;5.79;69.59
64937;SHT30;51452;47.698;19.050;2022-12-07T00:34:17;5.69;69.54
64937;SHT30;51452;47.698;19.050;2022-12-07T00:36:43;5.67;69.58
64937;SHT30;51452;47.698;19.050;2022-12-07T00:39:09;5.56;69.88
64937;SHT30;51452;47.698;19.050;2022-12-07T00:41:34;5.59;69.93
64937;SHT30;51452;47.698;19.050;2022-12-07T00:44:00;5.56;69.81
64937;SHT30;51452;47.698;19.050;2022-12-07T00:46:25;5.53;69.82
64937;SHT30;51452;47.698;19.050;2022-12-07T00:48:52;5.59;70.09
64937;SHT30;51452;47.698;19.050;2022-12-07T00:51:21;5.58;69.95
64937;SHT30;51452;47.698;19.050;2022-12-07T00:53:46;5.59;70.00
64937;SHT30;51452;47.698;19.050;2022-12-07T00:58:38;5.59;69.78
64937;SHT30;51452;47.698;19.050;2022-12-07T01:01:06;5.62;69.76
64937;SHT30;51452;47.698;19.050;2022-12-07T01:03:31;5.63;69.74
64937;SHT30;51452;47.698;19.050;2022-12-07T01:05:57;5.63;69.44
64937;SHT30;51452;47.698;19.050;2022-12-07T01:08:24;5.65;69.38
64937;SHT30;51452;47.698;19.050;2022-12-07T01:11:01;5.65;69.12
64937;SHT30;51452;47.698;19.050;2022-12-07T01:13:27;5.70;69.17
64937;SHT30;51452;47.698;19.050;2022-12-07T01:15:56;5.62;68.94
64937;SHT30;51452;47.698;19.050;2022-12-07T01:18:22;5.66;68.98
64937;SHT30;51452;47.698;19.050;2022-12-07T01:21:06;5.63;68.91
64937;SHT30;51452;47.698;19.050;2022-12-07T01:23:36;5.73;68.57
64937;SHT30;51452;47.698;19.050;2022-12-07T01:26:04;5.77;68.41
64937;SHT30;51452;47.698;19.050;2022-12-07T01:28:30;5.74;68.75
64937;SHT30;51452;47.698;19.050;2022-12-07T01:31:05;5.74;68.66
64937;SHT30;51452;47.698;19.050;2022-12-07T01:33:36;5.79;68.39
64937;SHT30;51452;47.698;19.050;2022-12-07T01:36:24;5.80;68.17
64937;SHT30;51452;47.698;19.050;2022-12-07T01:38:54;5.87;68.37
64937;SHT30;51452;47.698;19.050;2022-12-07T01:41:22;5.90;68.30
64937;SHT30;51452;47.698;19.050;2022-12-07T01:46:34;5.86;68.76
64937;SHT30;51452;47.698;19.050;2022-12-07T01:49:00;5.87;68.70
64937;SHT30;51452;47.698;19.050;2022-12-07T01:51:27;5.99;68.87
64937;SHT30;51452;47.698;19.050;2022-12-07T01:53:53;5.94;68.82
64937;SHT30;51452;47.698;19.050;2022-12-07T01:56:21;5.97;69.45
64937;SHT30;51452;47.698;19.050;2022-12-07T01:58:47;6.06;69.21
64937;SHT30;51452;47.698;19.050;2022-12-07T02:01:14;6.09;69.72
64937;SHT30;51452;47.698;19.050;2022-12-07T02:03:41;6.11;69.44
64937;SHT30;51452;47.698;19.050;2022-12-07T02:06:08;6.17;69.47
64937;SHT30;51452;47.698;19.050;2022-12-07T02:08:34;6.17;69.46
64937;SHT30;51452;47.698;19.050;2022-12-07T02:11:03;6.16;69.65
64937;SHT30;51452;47.698;19.050;2022-12-07T02:13:31;6.22;69.61
64937;SHT30;51452;47.698;19.050;2022-12-07T02:24:14;6.22;70.41
64937;SHT30;51452;47.698;19.050;2022-12-07T02:31:55;6.32;71.07
64937;SHT30;51452;47.698;19.050;2022-12-07T02:37:34;6.34;71.00
64937;SHT30;51452;47.698;19.050;2022-12-07T02:42:40;6.31;71.76
64937;SHT30;51452;47.698;19.050;2022-12-07T02:45:08;6.30;71.51
64937;SHT30;51452;47.698;19.050;2022-12-07T02:47:35;6.35;71.22
64937;SHT30;51452;47.698;19.050;2022-12-07T02:50:04;6.32;71.26
64937;SHT30;51452;47.698;19.050;2022-12-07T02:52:30;6.35;71.47
64937;SHT30;51452;47.698;19.050;2022-12-07T02:54:55;6.40;70.75
64937;SHT30;51452;47.698;19.050;2022-12-07T03:00:10;6.34;70.08
64937;SHT30;51452;47.698;19.050;2022-12-07T03:05:16;6.30;70.56
64937;SHT30;51452;47.698;19.050;2022-12-07T03:10:55;6.17;71.40
64937;SHT30;51452;47.698;19.050;2022-12-07T03:13:54;6.11;71.83
64937;SHT30;51452;47.698;19.050;2022-12-07T03:16:28;6.21;72.63
64937;SHT30;51452;47.698;19.050;2022-12-07T03:19:07;6.20;73.12
64937;SHT30;51452;47.698;19.050;2022-12-07T03:21:38;6.20;73.08
64937;SHT30;51452;47.698;19.050;2022-12-07T03:24:09;6.22;73.23
64937;SHT30;51452;47.698;19.050;2022-12-07T03:26:39;6.25;73.26
64937;SHT30;51452;47.698;19.050;2022-12-07T03:29:10;6.25;73.65
64937;SHT30;51452;47.698;19.050;2022-12-07T03:31:43;6.27;74.26
64937;SHT30;51452;47.698;19.050;2022-12-07T03:34:32;6.18;74.27
64937;SHT30;51452;47.698;19.050;2022-12-07T03:37:07;6.22;74.81
64937;SHT30;51452;47.698;19.050;2022-12-07T03:39:46;6.25;74.79
64937;SHT30;51452;47.698;19.050;2022-12-07T03:42:16;6.28;75.26
64937;SHT30;51452;47.698;19.050;2022-12-07T03:44:42;6.28;75.60
64937;SHT30;51452;47.698;19.050;2022-12-07T03:47:30;6.22;75.52
64937;SHT30;51452;47.698;19.050;2022-12-07T03:52:51;6.18;75.99
64937;SHT30;51452;47.698;19.050;2022-12-07T03:55:30;6.13;75.98
64937;SHT30;51452;47.698;19.050;2022-12-07T03:58:00;6.16;76.12
64937;SHT30;51452;47.698;19.050;2022-12-07T04:00:28;6.16;76.12
64937;SHT30;51452;47.698;19.050;2022-12-07T04:02:55;6.10;76.37
64937;SHT30;51452;47.698;19.050;2022-12-07T04:05:21;6.10;76.44
64937;SHT30;51452;47.698;19.050;2022-12-07T04:07:46;6.13;76.42
64937;SHT30;51452;47.698;19.050;2022-12-07T04:10:12;6.03;76.44
64937;SHT30;51452;47.698;19.050;2022-12-07T04:12:37;6.03;76.49
64937;SHT30;51452;47.698;19.050;2022-12-07T04:15:03;6.01;76.58
64937;SHT30;51452;47.698;19.050;2022-12-07T04:17:29;6.04;76.56
64937;SHT30;51452;47.698;19.050;2022-12-07T04:19:54;6.00;76.37
64937;SHT30;51452;47.698;19.050;2022-12-07T04:22:20;5.97;76.36
64937;SHT30;51452;47.698;19.050;2022-12-07T04:24:45;5.99;76.42
64937;SHT30;51452;47.698;19.050;2022-12-07T04:27:10;5.94;76.56
64937;SHT30;51452;47.698;19.050;2022-12-07T04:29:36;5.90;76.61
64937;SHT30;51452;47.698;19.050;2022-12-07T04:32:01;5.85;76.79
64937;SHT30;51452;47.698;19.050;2022-12-07T04:34:27;5.81;77.08
64937;SHT30;51452;47.698;19.050;2022-12-07T04:36:52;5.79;77.15
64937;SHT30;51452;47.698;19.050;2022-12-07T04:39:23;5.74;76.95
64937;SHT30;51452;47.698;19.050;2022-12-07T04:41:49;5.73;77.15
64937;SHT30;51452;47.698;19.050;2022-12-07T04:44:15;5.70;77.25
64937;SHT30;51452;47.698;19.050;2022-12-07T04:46:41;5.69;77.35
64937;SHT30;51452;47.698;19.050;2022-12-07T04:49:06;5.63;77.32
64937;SHT30;51452;47.698;19.050;2022-12-07T04:51:32;5.58;77.45
64937;SHT30;51452;47.698;19.050;2022-12-07T04:53:57;5.52;77.70
64937;SHT30;51452;47.698;19.050;2022-12-07T04:56:23;5.50;77.83
64937;SHT30;51452;47.698;19.050;2022-12-07T04:58:50;5.49;77.91
64937;SHT30;51452;47.698;19.050;2022-12-07T05:01:16;5.56;77.99
64937;SHT30;51452;47.698;19.050;2022-12-07T05:03:42;5.56;77.93
64937;SHT30;51452;47.698;19.050;2022-12-07T05:06:09;5.62;77.81
64937;SHT30;51452;47.698;19.050;2022-12-07T05:08:36;5.63;77.59
64937;SHT30;51452;47.698;19.050;2022-12-07T05:11:03;5.62;77.33
64937;SHT30;51452;47.698;19.050;2022-12-07T05:13:28;5.53;77.52
64937;SHT30;51452;47.698;19.050;2022-12-07T05:15:54;5.53;77.70
64937;SHT30;51452;47.698;19.050;2022-12-07T05:18:19;5.56;77.58
64937;SHT30;51452;47.698;19.050;2022-12-07T05:20:45;5.46;77.64
64937;SHT30;51452;47.698;19.050;2022-12-07T05:23:11;5.38;77.98
64937;SHT30;51452;47.698;19.050;2022-12-07T05:25:37;5.34;78.19
64937;SHT30;51452;47.698;19.050;2022-12-07T05:28:03;5.31;78.33
64937;SHT30;51452;47.698;19.050;2022-12-07T05:30:28;5.24;78.68
64937;SHT30;51452;47.698;19.050;2022-12-07T05:32:54;5.27;78.72
64937;SHT30;51452;47.698;19.050;2022-12-07T05:35:19;5.27;78.48
64937;SHT30;51452;47.698;19.050;2022-12-07T05:37:45;5.25;78.60
64937;SHT30;51452;47.698;19.050;2022-12-07T05:40:12;5.32;78.64
64937;SHT30;51452;47.698;19.050;2022-12-07T05:42:38;5.32;78.43
64937;SHT30;51452;47.698;19.050;2022-12-07T05:45:04;5.36;78.09
64937;SHT30;51452;47.698;19.050;2022-12-07T05:47:30;5.36;77.98
64937;SHT30;51452;47.698;19.050;2022-12-07T05:49:55;5.34;78.15
64937;SHT30;51452;47.698;19.050;2022-12-07T05:52:21;5.36;78.12
64937;SHT30;51452;47.698;19.050;2022-12-07T05:54:46;5.34;78.22
64937;SHT30;51452;47.698;19.050;2022-12-07T05:57:12;5.31;78.24
64937;SHT30;51452;47.698;19.050;2022-12-07T05:59:37;5.28;78.48
64937;SHT30;51452;47.698;19.050;2022-12-07T06:02:13;5.31;78.46
64937;SHT30;51452;47.698;19.050;2022-12-07T06:04:44;5.36;78.35
64937;SHT30;51452;47.698;19.050;2022-12-07T06:07:15;5.36;78.16
64937;SHT30;51452;47.698;19.050;2022-12-07T06:09:40;5.42;78.12
64937;SHT30;51452;47.698;19.050;2022-12-07T06:12:06;5.46;78.18
64937;SHT30;51452;47.698;19.050;2022-12-07T06:14:50;5.50;78.12
64937;SHT30;51452;47.698;19.050;2022-12-07T06:17:16;5.49;78.10
64937;SHT30;51452;47.698;19.050;2022-12-07T06:19:42;5.56;78.03
64937;SHT30;51452;47.698;19.050;2022-12-07T06:22:08;5.58;77.88
64937;SHT30;51452;47.698;19.050;2022-12-07T06:24:35;5.53;78.11
64937;SHT30;51452;47.698;19.050;2022-12-07T06:27:01;5.55;77.95
64937;SHT30;51452;47.698;19.050;2022-12-07T06:29:26;5.56;77.95
64937;SHT30;51452;47.698;19.050;2022-12-07T06:31:52;5.58;77.81
64937;SHT30;51452;47.698;19.050;2022-12-07T06:34:19;5.55;77.67
64937;SHT30;51452;47.698;19.050;2022-12-07T06:36:46;5.60;77.67
64937;SHT30;51452;47.698;19.050;2022-12-07T06:39:16;5.62;77.66
64937;SHT30;51452;47.698;19.050;2022-12-07T06:41:42;5.65;77.51
64937;SHT30;51452;47.698;19.050;2022-12-07T06:44:07;5.66;77.48
64937;SHT30;51452;47.698;19.050;2022-12-07T06:46:33;5.65;77.43
64937;SHT30;51452;47.698;19.050;2022-12-07T06:49:00;5.65;77.46
64937;SHT30;51452;47.698;19.050;2022-12-07T06:51:25;5.65;77.60
64937;SHT30;51452;47.698;19.050;2022-12-07T06:53:51;5.59;77.72
64937;SHT30;51452;47.698;19.050;2022-12-07T06:56:16;5.38;77.59
64937;SHT30;51452;47.698;19.050;2022-12-07T06:58:42;5.43;77.95
64937;SHT30;51452;47.698;19.050;2022-12-07T07:01:11;5.49;78.05
64937;SHT30;51452;47.698;19.050;2022-12-07T07:03:37;5.56;77.93
64937;SHT30;51452;47.698;19.050;2022-12-07T07:06:03;5.46;77.15
64937;SHT30;51452;47.698;19.050;2022-12-07T07:08:29;5.49;77.08
64937;SHT30;51452;47.698;19.050;2022-12-07T07:10:54;5.45;76.68
64937;SHT30;51452;47.698;19.050;2022-12-07T07:13:19;5.60;76.30
64937;SHT30;51452;47.698;19.050;2022-12-07T07:15:45;5.60;75.46
64937;SHT30;51452;47.698;19.050;2022-12-07T07:18:10;5.59;75.16
64937;SHT30;51452;47.698;19.050;2022-12-07T07:20:36;5.58;74.98
64937;SHT30;51452;47.698;19.050;2022-12-07T07:23:02;5.65;75.46
64937;SHT30;51452;47.698;19.050;2022-12-07T07:25:27;5.69;74.66
64937;SHT30;51452;47.698;19.050;2022-12-07T07:27:53;5.65;74.33
64937;SHT30;51452;47.698;19.050;2022-12-07T07:30:18;5.50;74.47
64937;SHT30;51452;47.698;19.050;2022-12-07T07:32:43;5.53;74.79
64937;SHT30;51452;47.698;19.050;2022-12-07T07:35:09;5.52;75.05
64937;SHT30;51452;47.698;19.050;2022-12-07T07:37:34;5.55;74.90
64937;SHT30;51452;47.698;19.050;2022-12-07T07:40:00;5.60;74.64
64937;SHT30;51452;47.698;19.050;2022-12-07T07:42:25;5.53;74.60
64937;SHT30;51452;47.698;19.050;2022-12-07T07:44:50;5.56;74.36
64937;SHT30;51452;47.698;19.050;2022-12-07T07:47:16;5.50;73.96
64937;SHT30;51452;47.698;19.050;2022-12-07T07:49:41;5.52;74.35
64937;SHT30;51452;47.698;19.050;2022-12-07T07:52:06;5.52;74.22
64937;SHT30;51452;47.698;19.050;2022-12-07T07:54:32;5.49;74.27
64937;SHT30;51452;47.698;19.050;2022-12-07T07:56:57;5.50;74.24
64937;SHT30;51452;47.698;19.050;2022-12-07T07:59:23;5.45;73.90
64937;SHT30;51452;47.698;19.050;2022-12-07T08:01:49;5.48;73.95
64937;SHT30;51452;47.698;19.050;2022-12-07T08:04:15;5.50;74.24
64937;SHT30;51452;47.698;19.050;2022-12-07T08:06:41;5.43;73.63
64937;SHT30;51452;47.698;19.050;2022-12-07T08:09:07;5.48;74.00
64937;SHT30;51452;47.698;19.050;2022-12-07T08:11:33;5.59;74.00
64937;SHT30;51452;47.698;19.050;2022-12-07T08:13:59;5.63;73.77
64937;SHT30;51452;47.698;19.050;2022-12-07T08:16:24;5.63;74.20
64937;SHT30;51452;47.698;19.050;2022-12-07T08:18:50;5.76;73.73
64937;SHT30;51452;47.698;19.050;2022-12-07T08:21:15;5.76;73.68
64937;SHT30;51452;47.698;19.050;2022-12-07T08:23:41;5.86;73.84
64937;SHT30;51452;47.698;19.050;2022-12-07T08:26:09;5.91;73.55
64937;SHT30;51452;47.698;19.050;2022-12-07T08:28:34;5.96;73.86
64937;SHT30;51452;47.698;19.050;2022-12-07T08:31:06;5.99;74.40
64937;SHT30;51452;47.698;19.050;2022-12-07T08:33:34;5.96;74.64
64937;SHT30;51452;47.698;19.050;2022-12-07T08:36:04;5.96;73.97
64937;SHT30;51452;47.698;19.050;2022-12-07T08:38:31;6.03;73.58
64937;SHT30;51452;47.698;19.050;2022-12-07T08:40:57;6.03;74.16
64937;SHT30;51452;47.698;19.050;2022-12-07T08:43:23;5.94;74.30
64937;SHT30;51452;47.698;19.050;2022-12-07T08:48:27;5.81;74.63
64937;SHT30;51452;47.698;19.050;2022-12-07T08:50:53;5.85;74.39
64937;SHT30;51452;47.698;19.050;2022-12-07T08:53:18;5.90;74.48
64937;SHT30;51452;47.698;19.050;2022-12-07T08:55:47;5.97;72.86
64937;SHT30;51452;47.698;19.050;2022-12-07T08:58:13;6.01;73.49
64937;SHT30;51452;47.698;19.050;2022-12-07T09:00:39;6.00;73.50
64937;SHT30;51452;47.698;19.050;2022-12-07T09:03:04;5.99;72.14
64937;SHT30;51452;47.698;19.050;2022-12-07T09:05:32;5.96;71.95
64937;SHT30;51452;47.698;19.050;2022-12-07T09:08:00;5.89;71.58
64937;SHT30;51452;47.698;19.050;2022-12-07T09:10:26;5.97;71.83
64937;SHT30;51452;47.698;19.050;2022-12-07T09:12:51;5.91;72.65
64937;SHT30;51452;47.698;19.050;2022-12-07T09:15:17;5.99;72.46
64937;SHT30;51452;47.698;19.050;2022-12-07T09:17:42;5.97;71.56
64937;SHT30;51452;47.698;19.050;2022-12-07T09:20:08;6.07;71.81
64937;SHT30;51452;47.698;19.050;2022-12-07T09:22:33;6.03;70.92
64937;SHT30;51452;47.698;19.050;2022-12-07T09:25:00;6.10;70.63
64937;SHT30;51452;47.698;19.050;2022-12-07T09:27:25;6.16;70.62
64937;SHT30;51452;47.698;19.050;2022-12-07T09:29:51;6.24;71.03
64937;SHT30;51452;47.698;19.050;2022-12-07T09:32:16;6.20;70.13
64937;SHT30;51452;47.698;19.050;2022-12-07T09:34:41;6.25;70.82
64937;SHT30;51452;47.698;19.050;2022-12-07T09:37:07;6.28;70.38
64937;SHT30;51452;47.698;19.050;2022-12-07T09:39:33;6.30;71.05
64937;SHT30;51452;47.698;19.050;2022-12-07T09:41:59;6.32;70.78
64937;SHT30;51452;47.698;19.050;2022-12-07T09:44:28;6.42;71.30
64937;SHT30;51452;47.698;19.050;2022-12-07T09:46:54;6.34;70.95
64937;SHT30;51452;47.698;19.050;2022-12-07T09:49:23;6.40;69.72
64937;SHT30;51452;47.698;19.050;2022-12-07T09:52:01;6.48;70.29
64937;SHT30;51452;47.698;19.050;2022-12-07T09:54:28;6.58;70.79
64937;SHT30;51452;47.698;19.050;2022-12-07T09:56:54;6.69;70.10
64937;SHT30;51452;47.698;19.050;2022-12-07T09:59:19;6.86;69.77
64937;SHT30;51452;47.698;19.050;2022-12-07T10:01:49;6.97;68.62
64937;SHT30;51452;47.698;19.050;2022-12-07T10:04:21;7.10;67.83
64937;SHT30;51452;47.698;19.050;2022-12-07T10:06:47;7.17;67.00
64937;SHT30;51452;47.698;19.050;2022-12-07T10:09:16;7.37;66.20
64937;SHT30;51452;47.698;19.050;2022-12-07T10:11:58;7.43;64.46
64937;SHT30;51452;47.698;19.050;2022-12-07T10:14:27;7.52;63.92
64937;SHT30;51452;47.698;19.050;2022-12-07T10:16:53;7.57;63.70
64937;SHT30;51452;47.698;19.050;2022-12-07T10:19:31;7.78;64.69
64937;SHT30;51452;47.698;19.050;2022-12-07T10:22:14;7.77;63.44
64937;SHT30;51452;47.698;19.050;2022-12-07T10:24:41;7.70;63.43
64937;SHT30;51452;47.698;19.050;2022-12-07T10:27:30;7.62;63.14
64937;SHT30;51452;47.698;19.050;2022-12-07T10:29:57;7.65;63.38
64937;SHT30;51452;47.698;19.050;2022-12-07T10:32:36;7.77;63.79
64937;SHT30;51452;47.698;19.050;2022-12-07T10:37:47;7.77;63.93
64937;SHT30;51452;47.698;19.050;2022-12-07T10:40:32;7.88;63.76
64937;SHT30;51452;47.698;19.050;2022-12-07T10:48:23;7.91;62.70
64937;SHT30;51452;47.698;19.050;2022-12-07T10:53:53;7.70;62.37
64937;SHT30;51452;47.698;19.050;2022-12-07T10:56:29;7.68;63.38
64937;SHT30;51452;47.698;19.050;2022-12-07T11:10:22;7.64;64.15
64937;SHT30;51452;47.698;19.050;2022-12-07T11:12:56;7.58;63.48
64937;SHT30;51452;47.698;19.050;2022-12-07T11:19:00;7.61;63.27
64937;SHT30;51452;47.698;19.050;2022-12-07T11:24:03;7.60;64.51
64937;SHT30;51452;47.698;19.050;2022-12-07T11:37:08;7.62;63.06
64937;SHT30;51452;47.698;19.050;2022-12-07T11:39:44;7.52;61.51
64937;SHT30;51452;47.698;19.050;2022-12-07T11:42:25;7.48;61.52
64937;SHT30;51452;47.698;19.050;2022-12-07T11:44:55;7.46;61.78
64937;SHT30;51452;47.698;19.050;2022-12-07T11:47:54;7.46;63.25
64937;SHT30;51452;47.698;19.050;2022-12-07T12:06:33;7.64;63.37
64937;SHT30;51452;47.698;19.050;2022-12-07T12:14:49;7.64;62.71
64937;SHT30;51452;47.698;19.050;2022-12-07T12:22:55;7.48;63.67
64937;SHT30;51452;47.698;19.050;2022-12-07T12:25:29;7.38;63.66
64937;SHT30;51452;47.698;19.050;2022-12-07T12:27:58;7.35;63.12
64937;SHT30;51452;47.698;19.050;2022-12-07T12:30:44;7.47;62.79
64937;SHT30;51452;47.698;19.050;2022-12-07T12:33:13;7.40;63.26
64937;SHT30;51452;47.698;19.050;2022-12-07T12:35:40;7.58;63.51
64937;SHT30;51452;47.698;19.050;2022-12-07T12:38:34;7.61;63.49
64937;SHT30;51452;47.698;19.050;2022-12-07T12:46:55;7.98;61.74
64937;SHT30;51452;47.698;19.050;2022-12-07T12:57:12;8.32;58.72
64937;SHT30;51452;47.698;19.050;2022-12-07T13:02:34;8.21;59.33
64937;SHT30;51452;47.698;19.050;2022-12-07T13:15:51;7.72;60.99
64937;SHT30;51452;47.698;19.050;2022-12-07T13:31:42;7.64;62.84
64937;SHT30;51452;47.698;19.050;2022-12-07T13:36:57;7.57;63.15
64937;SHT30;51452;47.698;19.050;2022-12-07T13:39:24;7.43;62.93
64937;SHT30;51452;47.698;19.050;2022-12-07T13:41:58;7.30;63.19
64937;SHT30;51452;47.698;19.050;2022-12-07T13:44:27;7.31;63.25
64937;SHT30;51452;47.698;19.050;2022-12-07T13:49:39;7.12;62.51
64937;SHT30;51452;47.698;19.050;2022-12-07T13:52:20;7.03;62.45
64937;SHT30;51452;47.698;19.050;2022-12-07T13:57:25;6.95;63.16
64937;SHT30;51452;47.698;19.050;2022-12-07T13:59:52;6.92;63.28
64937;SHT30;51452;47.698;19.050;2022-12-07T14:04:51;6.82;62.62
64937;SHT30;51452;47.698;19.050;2022-12-07T14:07:25;6.79;62.95
64937;SHT30;51452;47.698;19.050;2022-12-07T14:10:00;6.72;63.03
64937;SHT30;51452;47.698;19.050;2022-12-07T14:12:27;6.71;63.08
64937;SHT30;51452;47.698;19.050;2022-12-07T14:14:53;6.72;63.43
64937;SHT30;51452;47.698;19.050;2022-12-07T14:17:21;6.67;63.92
64937;SHT30;51452;47.698;19.050;2022-12-07T14:19:55;6.62;63.77
64937;SHT30;51452;47.698;19.050;2022-12-07T14:22:33;6.59;64.23
64937;SHT30;51452;47.698;19.050;2022-12-07T14:27:58;6.55;64.76
64937;SHT30;51452;47.698;19.050;2022-12-07T14:30:29;6.55;64.76
64937;SHT30;51452;47.698;19.050;2022-12-07T14:33:05;6.42;64.39
64937;SHT30;51452;47.698;19.050;2022-12-07T14:35:31;6.34;64.72
64937;SHT30;51452;47.698;19.050;2022-12-07T14:37:56;6.40;65.31
64937;SHT30;51452;47.698;19.050;2022-12-07T14:40:27;6.38;65.44
64937;SHT30;51452;47.698;19.050;2022-12-07T14:45:23;6.22;64.66
64937;SHT30;51452;47.698;19.050;2022-12-07T14:47:49;6.25;65.00
64937;SHT30;51452;47.698;19.050;2022-12-07T14:50:17;6.28;65.08
64937;SHT30;51452;47.698;19.050;2022-12-07T14:52:55;6.21;65.33
64937;SHT30;51452;47.698;19.050;2022-12-07T14:55:27;6.20;65.65
64937;SHT30;51452;47.698;19.050;2022-12-07T14:57:53;6.11;65.78
64937;SHT30;51452;47.698;19.050;2022-12-07T15:00:21;6.03;66.16
64937;SHT30;51452;47.698;19.050;2022-12-07T15:02:48;5.94;66.41
64937;SHT30;51452;47.698;19.050;2022-12-07T15:05:14;5.91;66.49
64937;SHT30;51452;47.698;19.050;2022-12-07T15:07:40;5.90;66.21
64937;SHT30;51452;47.698;19.050;2022-12-07T15:10:08;5.85;66.45
64937;SHT30;51452;47.698;19.050;2022-12-07T15:12:38;5.85;66.33
64937;SHT30;51452;47.698;19.050;2022-12-07T15:15:03;5.79;66.29
64937;SHT30;51452;47.698;19.050;2022-12-07T15:17:29;5.77;66.13
64937;SHT30;51452;47.698;19.050;2022-12-07T15:19:54;5.76;66.53
64937;SHT30;51452;47.698;19.050;2022-12-07T15:22:20;5.74;66.32
64937;SHT30;51452;47.698;19.050;2022-12-07T15:24:45;5.69;66.56
64937;SHT30;51452;47.698;19.050;2022-12-07T15:27:10;5.66;66.92
64937;SHT30;51452;47.698;19.050;2022-12-07T15:29:36;5.58;67.04
64937;SHT30;51452;47.698;19.050;2022-12-07T15:32:01;5.50;67.44
64937;SHT30;51452;47.698;19.050;2022-12-07T15:34:27;5.42;67.10
64937;SHT30;51452;47.698;19.050;2022-12-07T15:36:54;5.36;67.86
64937;SHT30;51452;47.698;19.050;2022-12-07T15:39:19;5.29;67.88
64937;SHT30;51452;47.698;19.050;2022-12-07T15:41:44;5.27;67.99
64937;SHT30;51452;47.698;19.050;2022-12-07T15:44:12;5.15;68.03
64937;SHT30;51452;47.698;19.050;2022-12-07T15:46:57;5.07;68.82
64937;SHT30;51452;47.698;19.050;2022-12-07T15:49:22;5.01;69.17
64937;SHT30;51452;47.698;19.050;2022-12-07T15:51:47;4.98;69.05
64937;SHT30;51452;47.698;19.050;2022-12-07T15:54:18;4.94;69.23
64937;SHT30;51452;47.698;19.050;2022-12-07T15:56:43;4.98;69.38
64937;SHT30;51452;47.698;19.050;2022-12-07T15:59:09;5.01;69.17
64937;SHT30;51452;47.698;19.050;2022-12-07T16:01:34;5.02;68.76
64937;SHT30;51452;47.698;19.050;2022-12-07T16:03:59;4.95;68.71
64937;SHT30;51452;47.698;19.050;2022-12-07T16:06:25;4.92;68.90
64937;SHT30;51452;47.698;19.050;2022-12-07T16:08:50;4.91;69.30
64937;SHT30;51452;47.698;19.050;2022-12-07T16:11:16;4.87;69.10
64937;SHT30;51452;47.698;19.050;2022-12-07T16:13:41;4.81;69.20
64937;SHT30;51452;47.698;19.050;2022-12-07T16:16:09;4.85;69.06
64937;SHT30;51452;47.698;19.050;2022-12-07T16:18:35;4.85;68.52
64937;SHT30;51452;47.698;19.050;2022-12-07T16:21:01;4.77;68.48
64937;SHT30;51452;47.698;19.050;2022-12-07T16:23:27;4.77;68.73
64937;SHT30;51452;47.698;19.050;2022-12-07T16:25:52;4.74;68.75
64937;SHT30;51452;47.698;19.050;2022-12-07T16:28:18;4.70;68.93
64937;SHT30;51452;47.698;19.050;2022-12-07T16:30:43;4.67;68.61
64937;SHT30;51452;47.698;19.050;2022-12-07T16:33:10;4.74;68.31
64937;SHT30;51452;47.698;19.050;2022-12-07T16:35:38;4.71;68.13
64937;SHT30;51452;47.698;19.050;2022-12-07T16:38:06;4.71;67.90
64937;SHT30;51452;47.698;19.050;2022-12-07T16:40:32;4.67;67.45
64937;SHT30;51452;47.698;19.050;2022-12-07T16:42:57;4.70;67.57
64937;SHT30;51452;47.698;19.050;2022-12-07T16:45:23;4.74;66.99
64937;SHT30;51452;47.698;19.050;2022-12-07T16:47:48;4.70;66.34
64937;SHT30;51452;47.698;19.050;2022-12-07T16:50:13;4.69;65.95
64937;SHT30;51452;47.698;19.050;2022-12-07T16:52:39;4.78;66.01
64937;SHT30;51452;47.698;19.050;2022-12-07T16:55:05;4.83;65.91
64937;SHT30;51452;47.698;19.050;2022-12-07T16:57:33;4.85;65.55
64937;SHT30;51452;47.698;19.050;2022-12-07T16:59:58;4.91;65.71
64937;SHT30;51452;47.698;19.050;2022-12-07T17:02:24;4.94;65.75
64937;SHT30;51452;47.698;19.050;2022-12-07T17:04:50;4.97;65.56
64937;SHT30;51452;47.698;19.050;2022-12-07T17:07:16;5.00;65.42
64937;SHT30;51452;47.698;19.050;2022-12-07T17:09:44;5.00;65.62
64937;SHT30;51452;47.698;19.050;2022-12-07T17:12:09;4.97;65.91
64937;SHT30;51452;47.698;19.050;2022-12-07T17:14:35;4.97;66.03
64937;SHT30;51452;47.698;19.050;2022-12-07T17:17:19;4.95;65.91
64937;SHT30;51452;47.698;19.050;2022-12-07T17:19:44;4.97;66.33
64937;SHT30;51452;47.698;19.050;2022-12-07T17:22:10;4.94;66.31
64937;SHT30;51452;47.698;19.050;2022-12-07T17:24:38;4.97;65.90
64937;SHT30;51452;47.698;19.050;2022-12-07T17:27:03;4.87;66.15
64937;SHT30;51452;47.698;19.050;2022-12-07T17:29:28;4.87;66.22
64937;SHT30;51452;47.698;19.050;2022-12-07T17:31:54;4.85;66.12
64937;SHT30;51452;47.698;19.050;2022-12-07T17:34:20;4.80;66.40
64937;SHT30;51452;47.698;19.050;2022-12-07T17:36:46;4.78;66.66
64937;SHT30;51452;47.698;19.050;2022-12-07T17:39:15;4.69;66.87
64937;SHT30;51452;47.698;19.050;2022-12-07T17:41:41;4.66;67.05
64937;SHT30;51452;47.698;19.050;2022-12-07T17:44:26;4.59;66.96
64937;SHT30;51452;47.698;19.050;2022-12-07T17:46:53;4.46;67.05
64937;SHT30;51452;47.698;19.050;2022-12-07T17:49:27;4.39;66.72
64937;SHT30;51452;47.698;19.050;2022-12-07T17:51:52;4.36;65.98
64937;SHT30;51452;47.698;19.050;2022-12-07T17:54:36;4.39;65.93
64937;SHT30;51452;47.698;19.050;2022-12-07T17:57:02;4.42;65.68
64937;SHT30;51452;47.698;19.050;2022-12-07T17:59:28;4.46;65.13
64937;SHT30;51452;47.698;19.050;2022-12-07T18:01:53;4.56;65.07
64937;SHT30;51452;47.698;19.050;2022-12-07T18:04:19;4.49;64.67
64937;SHT30;51452;47.698;19.050;2022-12-07T18:06:44;4.49;64.62
64937;SHT30;51452;47.698;19.050;2022-12-07T18:09:10;4.54;64.32
64937;SHT30;51452;47.698;19.050;2022-12-07T18:11:36;4.61;64.28
64937;SHT30;51452;47.698;19.050;2022-12-07T18:14:02;4.63;65.04
64937;SHT30;51452;47.698;19.050;2022-12-07T18:16:30;4.63;64.39